Time;durP1;ratioP1;P1;durP2;ratioP2;P2;SDS_P1;SDS_P2;PMS_P1;PMS_P2;Temp;Humidity;BMP_temperature;BMP_pressure;BME280_temperature;BME280_humidity;BME280_pressure;Samples;Min_cycle;Max_cycle;Signal;HPM_P1;HPM_P2
2023/12/31 00:01:37;;;;;;;;;;;;;;;8.97;62.65;98912.62;109603;1256;58860;-65
2023/12/31 00:04:04;;;;;;;;;;;;;;;8.85;62.95;98913.30;109522;1253;73929;-66
2023/12/31 00:06:32;;;;;;;;;;;;;;;8.86;62.90;98911.21;109192;1254;68598;-66
2023/12/31 00:08:59;;;;;;;;;;;;;;;8.87;62.91;98918.82;109429;1254;72716;-66
2023/12/31 00:11:27;;;;;;;;;;;;;;;9.07;61.80;98921.83;109493;1252;59640;-64
2023/12/31 00:13:54;;;;;;;;;;;;;;;8.98;62.23;98924.23;109542;1251;59852;-64
2023/12/31 00:16:21;;;;;;;;;;;;;;;9.25;61.03;98927.07;109494;1253;74724;-66
2023/12/31 00:18:49;;;;;;;;;;;;;;;9.13;61.22;98927.76;109597;1252;67675;-65
2023/12/31 00:21:16;;;;;;;;;;;;;;;9.10;61.30;98928.42;109249;1260;71466;-64
2023/12/31 00:23:44;;;;;;;;;;;;;;;8.97;62.10;98926.21;109325;1253;60871;-67
2023/12/31 00:26:12;;;;;;;;;;;;;;;9.22;60.80;98930.81;109637;1252;58943;-67
2023/12/31 00:28:40;;;;;;;;;;;;;;;9.10;61.09;98929.61;109618;1251;73562;-66
2023/12/31 00:31:07;;;;;;;;;;;;;;;8.92;61.70;98926.65;109605;1252;67264;-66
2023/12/31 00:33:35;;;;;;;;;;;;;;;8.61;63.08;98925.64;109592;1252;72728;-66
2023/12/31 00:36:02;;;;;;;;;;;;;;;8.64;63.13;98925.19;109401;1253;59654;-64
2023/12/31 00:38:30;;;;;;;;;;;;;;;8.56;63.23;98928.61;109268;1252;59366;-65
2023/12/31 00:40:57;;;;;;;;;;;;;;;8.49;63.57;98934.43;109604;1253;74716;-65
2023/12/31 00:43:25;;;;;;;;;;;;;;;8.47;63.75;98935.33;109624;1252;67671;-66
2023/12/31 00:45:52;;;;;;;;;;;;;;;8.41;64.56;98931.77;109588;1253;72716;-65
2023/12/31 00:48:20;;;;;;;;;;;;;;;8.33;64.67;98928.98;109570;1252;59626;-67
2023/12/31 00:50:47;;;;;;;;;;;;;;;8.29;64.98;98928.40;109638;1253;58991;-64
2023/12/31 00:53:15;;;;;;;;;;;;;;;8.09;65.84;98927.95;109369;1252;74730;-65
2023/12/31 00:55:43;;;;;;;;;;;;;;;8.19;65.17;98929.39;109637;1252;67621;-65
2023/12/31 00:58:11;;;;;;;;;;;;;;;8.23;64.89;98930.44;109617;1252;71480;-62
2023/12/31 01:00:38;;;;;;;;;;;;;;;8.04;65.85;98929.77;109583;1252;60933;-66
2023/12/31 01:03:06;;;;;;;;;;;;;;;7.79;67.52;98924.42;109628;1253;59913;-65
2023/12/31 01:05:33;;;;;;;;;;;;;;;8.00;66.59;98923.59;109651;1253;75014;-63
2023/12/31 01:08:01;;;;;;;;;;;;;;;8.06;66.33;98916.69;109625;1253;67518;-63
2023/12/31 01:10:30;;;;;;;;;;;;;;;8.19;65.46;98916.11;109480;1252;71758;-67
2023/12/31 01:12:57;;;;;;;;;;;;;;;8.04;65.79;98918.70;109543;1252;59649;-66
2023/12/31 01:15:25;;;;;;;;;;;;;;;7.93;66.28;98916.58;109589;1252;59865;-66
2023/12/31 01:17:52;;;;;;;;;;;;;;;7.91;66.49;98922.11;109594;1253;73382;-66
2023/12/31 01:20:20;;;;;;;;;;;;;;;7.94;66.11;98931.01;109519;1252;68511;-65
2023/12/31 01:22:47;;;;;;;;;;;;;;;7.78;66.85;98928.65;109596;1252;71404;-65
2023/12/31 01:25:15;;;;;;;;;;;;;;;7.59;68.33;98924.21;109303;1253;59680;-63
2023/12/31 01:27:42;;;;;;;;;;;;;;;7.61;68.47;98928.19;109592;1253;60008;-64
2023/12/31 01:30:10;;;;;;;;;;;;;;;7.66;68.22;98930.55;109598;1257;74740;-62
2023/12/31 01:32:38;;;;;;;;;;;;;;;7.75;67.61;98940.14;109424;1252;68493;-64
2023/12/31 01:35:06;;;;;;;;;;;;;;;7.58;68.57;98942.31;109220;1253;72725;-61
2023/12/31 01:37:33;;;;;;;;;;;;;;;7.65;68.02;98946.29;109549;1253;59668;-65
2023/12/31 01:40:01;;;;;;;;;;;;;;;7.69;67.83;98945.90;109594;1253;58979;-65
2023/12/31 01:42:28;;;;;;;;;;;;;;;7.77;67.27;98950.54;109587;1252;74666;-66
2023/12/31 01:44:56;;;;;;;;;;;;;;;7.87;66.90;98955.52;109566;1253;68847;-63
2023/12/31 01:47:23;;;;;;;;;;;;;;;7.89;66.93;98955.00;109540;1254;71599;-63
2023/12/31 01:49:51;;;;;;;;;;;;;;;7.85;67.37;98955.28;109432;1253;61063;-62
2023/12/31 01:52:19;;;;;;;;;;;;;;;7.99;66.90;98963.39;109603;1253;59004;-65
2023/12/31 01:54:46;;;;;;;;;;;;;;;8.15;65.87;98960.41;109623;1252;72738;-63
2023/12/31 01:57:14;;;;;;;;;;;;;;;8.15;65.96;98962.91;109616;1253;68720;-63
2023/12/31 01:59:41;;;;;;;;;;;;;;;8.11;66.11;98967.85;109465;1254;72159;-66
2023/12/31 02:02:09;;;;;;;;;;;;;;;8.11;66.15;98971.32;109252;1252;60950;-64
2023/12/31 02:04:37;;;;;;;;;;;;;;;8.14;66.07;98965.20;109624;1253;59853;-65
2023/12/31 02:07:04;;;;;;;;;;;;;;;8.28;65.85;98959.67;109536;1253;73639;-65
2023/12/31 02:09:32;;;;;;;;;;;;;;;8.37;65.20;98961.22;109600;1253;68813;-65
2023/12/31 02:11:59;;;;;;;;;;;;;;;8.35;65.50;98964.14;109618;1253;72726;-65
2023/12/31 02:14:27;;;;;;;;;;;;;;;8.49;64.71;98963.00;109559;1252;61018;-66
2023/12/31 02:16:54;;;;;;;;;;;;;;;8.41;65.22;98962.59;109579;1253;59013;-66
2023/12/31 02:19:22;;;;;;;;;;;;;;;8.18;66.22;98957.17;109606;1251;74735;-65
2023/12/31 02:21:50;;;;;;;;;;;;;;;8.16;66.89;98957.58;109505;1253;67983;-66
2023/12/31 02:24:18;;;;;;;;;;;;;;;8.42;65.66;98958.86;109515;1254;71431;-66
2023/12/31 02:26:45;;;;;;;;;;;;;;;8.40;65.48;98962.48;109559;1254;59681;-66
2023/12/31 02:29:14;;;;;;;;;;;;;;;8.57;64.70;98956.48;109511;1254;59828;-66
2023/12/31 02:31:42;;;;;;;;;;;;;;;8.42;65.13;98954.91;109411;1258;73390;-66
2023/12/31 02:34:09;;;;;;;;;;;;;;;8.31;65.96;98956.09;109456;1253;68922;-66
2023/12/31 02:36:37;;;;;;;;;;;;;;;8.50;64.99;98954.27;109326;1254;72769;-66
2023/12/31 02:39:04;;;;;;;;;;;;;;;8.44;65.37;98952.25;109422;1253;59697;-66
2023/12/31 02:41:32;;;;;;;;;;;;;;;8.40;65.60;98956.43;109322;1254;61216;-65
2023/12/31 02:44:00;;;;;;;;;;;;;;;8.51;65.07;98958.77;109349;1254;73982;-66
2023/12/31 02:46:27;;;;;;;;;;;;;;;8.30;65.55;98954.41;109358;1253;67742;-67
2023/12/31 02:48:55;;;;;;;;;;;;;;;8.27;66.09;98959.14;109333;1258;71447;-66
2023/12/31 02:51:22;;;;;;;;;;;;;;;8.61;64.50;98961.55;109201;1260;59660;-66
2023/12/31 02:53:50;;;;;;;;;;;;;;;8.77;63.62;98964.67;109164;1257;59100;-66
2023/12/31 02:56:17;;;;;;;;;;;;;;;8.67;64.45;98971.60;109202;1256;74792;-66
2023/12/31 02:58:45;;;;;;;;;;;;;;;8.80;63.87;98975.49;109131;1256;67702;-66
2023/12/31 03:01:13;;;;;;;;;;;;;;;8.67;64.23;98972.77;109326;1253;72744;-66
2023/12/31 03:03:40;;;;;;;;;;;;;;;8.54;64.72;98980.58;109217;1258;59699;-66
2023/12/31 03:06:08;;;;;;;;;;;;;;;8.60;64.29;98984.27;109487;1253;58931;-67
2023/12/31 03:08:35;;;;;;;;;;;;;;;8.64;64.34;98989.02;109498;1254;73502;-67
2023/12/31 03:11:03;;;;;;;;;;;;;;;8.83;63.34;98993.02;109457;1253;68536;-66
2023/12/31 03:13:31;;;;;;;;;;;;;;;8.74;63.84;98997.66;109492;1253;71493;-66
2023/12/31 03:16:03;;;;;;;;;;;;;;;8.78;63.57;99001.49;109349;1259;60934;-66
2023/12/31 03:18:30;;;;;;;;;;;;;;;8.80;64.08;98993.90;109542;1252;58870;-66
2023/12/31 03:20:58;;;;;;;;;;;;;;;8.95;63.51;98998.41;109371;1254;73465;-66
2023/12/31 03:23:25;;;;;;;;;;;;;;;8.93;63.03;98992.40;109377;1252;68588;-64
2023/12/31 03:25:53;;;;;;;;;;;;;;;8.91;63.09;98992.77;109539;1255;72766;-65
2023/12/31 03:28:22;;;;;;;;;;;;;;;8.84;63.15;98993.89;109285;1253;60779;-65
2023/12/31 03:30:49;;;;;;;;;;;;;;;8.89;63.38;98997.45;109548;1253;58991;-65
2023/12/31 03:33:17;;;;;;;;;;;;;;;8.67;64.25;98996.58;109568;1253;72876;-65
2023/12/31 03:35:45;;;;;;;;;;;;;;;8.75;64.13;98996.34;109446;1252;67263;-65
2023/12/31 03:38:13;;;;;;;;;;;;;;;8.90;63.22;98999.45;109555;1253;72752;-65
2023/12/31 03:40:41;;;;;;;;;;;;;;;8.73;63.99;99006.37;109335;1252;61071;-64
2023/12/31 03:43:08;;;;;;;;;;;;;;;8.82;63.58;99009.73;109539;1253;58890;-64
2023/12/31 03:45:36;;;;;;;;;;;;;;;8.89;63.46;99012.83;109559;1253;74715;-65
2023/12/31 03:48:03;;;;;;;;;;;;;;;8.80;63.72;99009.65;109586;1252;68800;-64
2023/12/31 03:50:31;;;;;;;;;;;;;;;8.97;63.04;99014.81;109536;1254;71807;-64
2023/12/31 03:52:58;;;;;;;;;;;;;;;9.06;62.86;99015.30;109514;1253;60926;-64
2023/12/31 03:55:26;;;;;;;;;;;;;;;9.10;62.66;99012.61;109573;1253;58946;-65
2023/12/31 03:57:55;;;;;;;;;;;;;;;9.04;62.54;99014.97;109460;1253;73480;-65
2023/12/31 04:00:23;;;;;;;;;;;;;;;9.00;62.53;99016.18;109565;1254;67297;-65
2023/12/31 04:02:51;;;;;;;;;;;;;;;9.08;62.21;99014.95;109478;1254;72758;-65
2023/12/31 04:05:18;;;;;;;;;;;;;;;8.97;62.41;99011.23;109574;1253;60956;-65
2023/12/31 04:07:46;;;;;;;;;;;;;;;8.83;63.10;99012.13;109297;1254;59992;-65
2023/12/31 04:10:17;;;;;;;;;;;;;;;8.87;63.20;99018.27;109449;1253;73463;-62
2023/12/31 04:12:45;;;;;;;;;;;;;;;8.99;62.38;99020.66;109601;1254;66787;-64
2023/12/31 04:15:12;;;;;;;;;;;;;;;8.60;63.92;99022.41;109176;1254;72721;-65
2023/12/31 04:17:40;;;;;;;;;;;;;;;8.48;64.68;99024.89;109182;1261;60939;-64
2023/12/31 04:20:08;;;;;;;;;;;;;;;8.50;64.49;99025.16;109619;1254;58996;-66
2023/12/31 04:22:35;;;;;;;;;;;;;;;8.43;64.73;99025.78;109573;1253;76856;-62
2023/12/31 04:25:03;;;;;;;;;;;;;;;8.30;65.68;99025.42;109114;1253;67779;-64
2023/12/31 04:27:31;;;;;;;;;;;;;;;8.32;66.34;99027.53;109552;1254;71476;-65
2023/12/31 04:29:59;;;;;;;;;;;;;;;8.14;67.31;99026.20;109577;1257;59093;-64
2023/12/31 04:32:26;;;;;;;;;;;;;;;8.26;67.02;99032.06;109486;1254;59875;-65
2023/12/31 04:34:54;;;;;;;;;;;;;;;8.67;65.09;99035.77;109349;1253;74785;-65
2023/12/31 04:37:22;;;;;;;;;;;;;;;8.66;65.20;99039.59;109403;1254;68547;-65
2023/12/31 04:39:49;;;;;;;;;;;;;;;8.68;65.27;99039.99;109440;1253;72734;-65
2023/12/31 04:42:17;;;;;;;;;;;;;;;8.76;65.14;99045.47;109437;1253;60490;-65
2023/12/31 04:44:45;;;;;;;;;;;;;;;8.72;65.62;99040.19;109435;1253;58947;-65
2023/12/31 04:47:12;;;;;;;;;;;;;;;8.86;65.10;99039.66;109399;1252;72769;-65
2023/12/31 04:49:40;;;;;;;;;;;;;;;8.97;64.43;99040.89;109544;1253;68609;-65
2023/12/31 04:52:08;;;;;;;;;;;;;;;8.96;64.18;99038.56;109510;1253;71456;-62
2023/12/31 04:54:37;;;;;;;;;;;;;;;8.81;64.74;99039.03;109088;1254;60194;-65
2023/12/31 04:57:05;;;;;;;;;;;;;;;8.84;65.07;99042.86;109155;1253;58917;-64
2023/12/31 04:59:32;;;;;;;;;;;;;;;8.99;64.16;99042.83;109546;1253;74685;-65
2023/12/31 05:02:00;;;;;;;;;;;;;;;8.90;64.60;99041.27;109561;1253;68549;-65
2023/12/31 05:04:27;;;;;;;;;;;;;;;9.03;64.22;99045.90;109547;1253;72711;-64
2023/12/31 05:06:55;;;;;;;;;;;;;;;9.00;64.08;99051.95;109568;1252;59360;-65
2023/12/31 05:09:23;;;;;;;;;;;;;;;8.95;64.25;99055.17;109565;1253;59145;-66
2023/12/31 05:11:50;;;;;;;;;;;;;;;8.81;64.53;99054.33;109536;1253;73422;-65
2023/12/31 05:14:18;;;;;;;;;;;;;;;8.69;65.89;99055.72;109390;1254;66948;-65
2023/12/31 05:16:45;;;;;;;;;;;;;;;8.78;65.27;99049.30;109389;1254;71923;-65
2023/12/31 05:19:13;;;;;;;;;;;;;;;8.84;65.10;99042.23;109453;1254;59652;-65
2023/12/31 05:21:40;;;;;;;;;;;;;;;8.86;65.04;99042.34;109367;1254;58895;-65
2023/12/31 05:24:08;;;;;;;;;;;;;;;9.10;63.92;99042.21;109146;1254;155984;-65
2023/12/31 05:26:35;;;;;;;;;;;;;;;9.05;63.97;99043.15;109338;1253;67516;-65
2023/12/31 05:29:03;;;;;;;;;;;;;;;9.24;62.72;99044.23;109311;1254;72734;-64
2023/12/31 05:31:30;;;;;;;;;;;;;;;9.39;61.95;99049.05;109303;1254;59632;-65
2023/12/31 05:33:58;;;;;;;;;;;;;;;9.45;61.45;99058.96;109325;1254;58965;-66
2023/12/31 05:36:25;;;;;;;;;;;;;;;9.22;62.42;99059.02;109364;1254;74757;-66
2023/12/31 05:38:53;;;;;;;;;;;;;;;9.08;63.31;99061.91;109445;1254;68666;-66
2023/12/31 05:41:20;;;;;;;;;;;;;;;9.17;63.05;99057.63;109382;1254;72739;-64
2023/12/31 05:43:48;;;;;;;;;;;;;;;9.15;62.94;99058.91;109371;1254;60729;-65
2023/12/31 05:46:15;;;;;;;;;;;;;;;8.98;63.57;99058.88;109402;1253;58949;-66
2023/12/31 05:48:42;;;;;;;;;;;;;;;9.14;63.28;99061.64;109461;1253;73420;-66
2023/12/31 05:51:10;;;;;;;;;;;;;;;9.32;62.61;99062.09;109445;1253;67671;-63
2023/12/31 05:53:38;;;;;;;;;;;;;;;9.19;62.85;99058.34;109583;1252;71229;-66
2023/12/31 05:56:05;;;;;;;;;;;;;;;9.23;62.19;99054.41;109574;1253;61061;-65
2023/12/31 05:58:33;;;;;;;;;;;;;;;9.18;62.44;99053.58;109124;1252;58991;-65
2023/12/31 06:01:02;;;;;;;;;;;;;;;9.18;62.18;99054.85;109502;1253;73486;-65
2023/12/31 06:03:30;;;;;;;;;;;;;;;9.27;61.54;99059.80;109602;1254;68848;-65
2023/12/31 06:05:57;;;;;;;;;;;;;;;9.06;62.65;99064.19;109324;1253;71595;-65
2023/12/31 06:08:25;;;;;;;;;;;;;;;8.92;63.34;99065.73;109573;1253;59628;-65
2023/12/31 06:10:52;;;;;;;;;;;;;;;9.19;62.32;99068.09;109352;1253;58870;-66
2023/12/31 06:13:20;;;;;;;;;;;;;;;8.92;62.79;99066.80;109212;1253;73456;-65
2023/12/31 06:15:48;;;;;;;;;;;;;;;9.09;61.91;99067.11;109458;1253;67645;-65
2023/12/31 06:18:15;;;;;;;;;;;;;;;9.03;62.32;99071.12;109462;1253;72721;-65
2023/12/31 06:20:43;;;;;;;;;;;;;;;9.17;61.46;99071.67;109417;1253;61086;-66
2023/12/31 06:23:10;;;;;;;;;;;;;;;9.11;61.37;99066.70;109333;1253;59915;-65
2023/12/31 06:25:38;;;;;;;;;;;;;;;9.02;61.50;99070.41;109217;1253;74719;-66
2023/12/31 06:28:06;;;;;;;;;;;;;;;9.05;61.54;99073.29;109455;1253;67327;-65
2023/12/31 06:30:33;;;;;;;;;;;;;;;8.94;61.59;99074.05;109582;1253;71576;-65
2023/12/31 06:33:00;;;;;;;;;;;;;;;8.86;62.24;99079.66;109415;1253;59942;-66
2023/12/31 06:35:28;;;;;;;;;;;;;;;9.01;61.42;99085.67;109457;1253;59855;-66
2023/12/31 06:37:56;;;;;;;;;;;;;;;9.07;60.94;99086.64;109493;1252;73429;-65
2023/12/31 06:40:23;;;;;;;;;;;;;;;8.93;61.50;99090.38;109562;1253;68841;-66
2023/12/31 06:42:51;;;;;;;;;;;;;;;8.91;61.70;99094.36;109537;1252;71783;-65
2023/12/31 06:45:18;;;;;;;;;;;;;;;8.79;62.15;99095.21;109491;1253;59655;-64
2023/12/31 06:47:45;;;;;;;;;;;;;;;8.75;62.17;99093.90;109560;1253;59925;-66
2023/12/31 06:50:13;;;;;;;;;;;;;;;8.73;62.20;99093.02;109542;1253;73430;-65
2023/12/31 06:52:40;;;;;;;;;;;;;;;8.51;63.53;99099.86;109553;1252;69029;-67
2023/12/31 06:55:10;;;;;;;;;;;;;;;8.58;63.34;99099.28;109516;1253;72201;-66
2023/12/31 06:57:38;;;;;;;;;;;;;;;8.45;63.85;99099.40;109464;1252;60932;-66
2023/12/31 07:00:07;;;;;;;;;;;;;;;8.58;63.25;99100.09;109562;1252;59863;-66
2023/12/31 07:02:35;;;;;;;;;;;;;;;8.71;62.69;99102.30;109581;1252;73473;-66
2023/12/31 07:05:03;;;;;;;;;;;;;;;8.96;61.64;99108.77;109572;1252;69064;-66
2023/12/31 07:07:31;;;;;;;;;;;;;;;9.28;60.08;99106.25;108685;1253;1002461;-67
2023/12/31 07:09:58;;;;;;;;;;;;;;;9.49;59.28;99110.48;109489;1252;59689;-66
2023/12/31 07:12:26;;;;;;;;;;;;;;;9.90;57.80;99114.58;109568;1252;59026;-65
2023/12/31 07:14:53;;;;;;;;;;;;;;;10.19;56.06;99117.04;109513;1252;74754;-67
2023/12/31 07:17:21;;;;;;;;;;;;;;;10.18;55.42;99119.72;109550;1252;68511;-67
2023/12/31 07:19:57;;;;;;;;;;;;;;;10.19;55.50;99119.41;109470;1253;71429;-67
2023/12/31 07:22:25;;;;;;;;;;;;;;;10.33;55.36;99120.80;109518;1252;59669;-67
2023/12/31 07:24:52;;;;;;;;;;;;;;;10.62;53.70;99128.33;109449;1253;59930;-67
2023/12/31 07:27:19;;;;;;;;;;;;;;;10.78;53.03;99128.42;109591;1252;73643;-65
2023/12/31 07:29:47;;;;;;;;;;;;;;;11.00;52.05;99134.91;109454;1253;68801;-65
2023/12/31 07:32:15;;;;;;;;;;;;;;;10.86;52.24;99131.73;109545;1251;72748;-65
2023/12/31 07:34:43;;;;;;;;;;;;;;;10.79;52.42;99136.38;109434;1254;60308;-65
2023/12/31 07:37:10;;;;;;;;;;;;;;;10.74;52.44;99140.44;109535;1252;59143;-65
2023/12/31 07:39:40;;;;;;;;;;;;;;;10.93;51.93;99137.10;109579;1252;74759;-66
2023/12/31 07:42:07;;;;;;;;;;;;;;;11.11;51.33;99143.52;109513;1253;67548;-66
2023/12/31 07:44:35;;;;;;;;;;;;;;;11.16;50.93;99149.39;109456;1253;72650;-66
2023/12/31 07:47:03;;;;;;;;;;;;;;;11.41;50.24;99156.15;109423;1253;61820;-65
2023/12/31 07:49:32;;;;;;;;;;;;;;;11.73;49.14;99160.98;109528;1252;59567;-65
2023/12/31 07:52:00;;;;;;;;;;;;;;;11.69;48.65;99162.06;109534;1253;73428;-66
2023/12/31 07:54:27;;;;;;;;;;;;;;;11.66;48.66;99165.45;109543;1252;67812;-65
2023/12/31 07:56:55;;;;;;;;;;;;;;;11.84;48.12;99171.73;109492;1252;71510;-67
2023/12/31 07:59:23;;;;;;;;;;;;;;;11.72;48.38;99174.77;109512;1252;61003;-65
2023/12/31 08:01:50;;;;;;;;;;;;;;;11.56;48.69;99173.30;109532;1253;59862;-66
2023/12/31 08:04:18;;;;;;;;;;;;;;;11.56;48.58;99174.76;109671;1253;74687;-66
2023/12/31 08:06:45;;;;;;;;;;;;;;;11.44;48.93;99176.97;109442;1252;67878;-66
2023/12/31 08:09:15;;;;;;;;;;;;;;;11.54;48.68;99177.92;109524;1252;71565;-66
2023/12/31 08:11:42;;;;;;;;;;;;;;;11.60;48.33;99184.25;109420;1253;60967;-68
2023/12/31 08:14:09;;;;;;;;;;;;;;;11.41;48.92;99181.31;109471;1252;59025;-67
2023/12/31 08:16:37;;;;;;;;;;;;;;;11.29;49.33;99190.98;109537;1252;74712;-67
2023/12/31 08:19:04;;;;;;;;;;;;;;;11.30;49.32;99190.65;109194;1253;67615;-67
2023/12/31 08:21:32;;;;;;;;;;;;;;;11.35;49.40;99191.15;109464;1253;72745;-67
2023/12/31 08:24:00;;;;;;;;;;;;;;;11.55;48.62;99194.48;109446;1253;60986;-66
2023/12/31 08:26:27;;;;;;;;;;;;;;;11.46;49.12;99201.36;109563;1252;58868;-67
2023/12/31 08:28:55;;;;;;;;;;;;;;;11.67;48.20;99199.49;109526;1252;74713;-67
2023/12/31 08:31:23;;;;;;;;;;;;;;;11.83;47.95;99202.06;109529;1252;68144;-68
2023/12/31 08:33:50;;;;;;;;;;;;;;;11.67;48.33;99201.85;109498;1252;71509;-68
2023/12/31 08:36:18;;;;;;;;;;;;;;;11.86;47.73;99202.28;109500;1252;60955;-67
2023/12/31 08:38:45;;;;;;;;;;;;;;;11.79;48.12;99210.23;109515;1252;59001;-68
2023/12/31 08:41:13;;;;;;;;;;;;;;;11.92;47.54;99213.77;109518;1252;74750;-68
2023/12/31 08:43:40;;;;;;;;;;;;;;;11.76;47.60;99211.38;109490;1252;67550;-68
2023/12/31 08:46:08;;;;;;;;;;;;;;;11.66;47.80;99213.67;109518;1252;73180;-69
2023/12/31 08:48:36;;;;;;;;;;;;;;;11.78;48.06;99215.95;109435;1253;59847;-68
2023/12/31 08:51:04;;;;;;;;;;;;;;;12.32;46.45;99218.23;109552;1252;59997;-68
2023/12/31 08:53:31;;;;;;;;;;;;;;;12.06;46.83;99217.86;109524;1252;74726;-69
2023/12/31 08:55:59;;;;;;;;;;;;;;;12.41;46.28;99221.30;109319;1253;68793;-69
2023/12/31 08:58:26;;;;;;;;;;;;;;;12.29;46.29;99215.30;109500;1252;72887;-69
2023/12/31 09:00:54;;;;;;;;;;;;;;;12.20;46.44;99209.89;109507;1252;59656;-68
2023/12/31 09:03:21;;;;;;;;;;;;;;;12.43;45.95;99212.35;109379;1252;59028;-69
2023/12/31 09:05:49;;;;;;;;;;;;;;;12.60;45.45;99209.48;109462;1253;73593;-69
2023/12/31 09:08:16;;;;;;;;;;;;;;;12.76;45.04;99205.92;109295;1253;67551;-69
2023/12/31 09:10:44;;;;;;;;;;;;;;;12.69;44.82;99206.91;109414;1253;72742;-68
2023/12/31 09:13:12;;;;;;;;;;;;;;;12.75;44.51;99202.80;109523;1252;58967;-68
2023/12/31 09:15:42;;;;;;;;;;;;;;;12.63;44.42;99208.57;109521;1252;58984;-68
2023/12/31 09:18:09;;;;;;;;;;;;;;;12.67;43.85;99213.45;109506;1252;73444;-68
2023/12/31 09:20:37;;;;;;;;;;;;;;;12.20;43.84;99215.63;109401;1252;67668;-68
2023/12/31 09:23:05;;;;;;;;;;;;;;;12.41;43.40;99216.02;109520;1252;73188;-68
2023/12/31 09:25:33;;;;;;;;;;;;;;;12.19;43.55;99220.70;109533;1252;58958;-69
2023/12/31 09:28:00;;;;;;;;;;;;;;;12.06;43.33;99220.35;109556;1252;59101;-69
2023/12/31 09:30:28;;;;;;;;;;;;;;;11.62;44.10;99217.55;109551;1252;73891;-69
2023/12/31 09:32:55;;;;;;;;;;;;;;;11.94;43.71;99223.31;109510;1252;66456;-68
2023/12/31 09:35:23;;;;;;;;;;;;;;;12.35;42.54;99223.35;109415;1253;72818;-69
2023/12/31 09:37:51;;;;;;;;;;;;;;;11.79;43.33;99224.86;109520;1252;59301;-69
2023/12/31 09:40:18;;;;;;;;;;;;;;;11.98;42.76;99225.73;109464;1253;58987;-68
2023/12/31 09:42:49;;;;;;;;;;;;;;;11.62;43.07;99216.05;109554;1252;74703;-67
2023/12/31 09:45:23;;;;;;;;;;;;;;;11.11;44.12;99223.39;109422;1253;67872;-67
2023/12/31 09:47:52;;;;;;;;;;;;;;;11.13;44.59;99229.15;109506;1253;71435;-68
2023/12/31 09:50:20;;;;;;;;;;;;;;;11.00;45.23;99230.98;109490;1252;59795;-67
2023/12/31 09:52:47;;;;;;;;;;;;;;;10.54;45.78;99224.16;109127;1252;59815;-67
2023/12/31 09:55:15;;;;;;;;;;;;;;;10.13;47.04;99227.08;109462;1253;75544;-66
2023/12/31 09:57:43;;;;;;;;;;;;;;;9.95;47.74;99223.73;109513;1252;68524;-66
2023/12/31 10:00:10;;;;;;;;;;;;;;;9.96;47.91;99224.33;109544;1252;72733;-66
2023/12/31 10:02:38;;;;;;;;;;;;;;;9.88;48.39;99226.33;109427;1253;59978;-66
2023/12/31 10:05:06;;;;;;;;;;;;;;;10.20;47.94;99222.71;109547;1252;59948;-65
2023/12/31 10:07:34;;;;;;;;;;;;;;;10.27;47.79;99222.55;109552;1252;75554;-66
2023/12/31 10:10:02;;;;;;;;;;;;;;;10.61;47.14;99228.17;109474;1253;67647;-67
2023/12/31 10:12:30;;;;;;;;;;;;;;;10.25;47.87;99224.02;109499;1252;71372;-67
2023/12/31 10:14:57;;;;;;;;;;;;;;;10.25;48.34;99220.34;109390;1254;59805;-66
2023/12/31 10:17:29;;;;;;;;;;;;;;;10.38;47.80;99218.83;109371;1252;59833;-66
2023/12/31 10:19:57;;;;;;;;;;;;;;;10.25;47.57;99215.47;109485;1252;75151;-66
2023/12/31 10:22:25;;;;;;;;;;;;;;;10.18;47.73;99208.77;109544;1252;68828;-66
2023/12/31 10:24:53;;;;;;;;;;;;;;;10.58;46.81;99209.90;109479;1253;71442;-67
2023/12/31 10:27:20;;;;;;;;;;;;;;;10.82;45.59;99200.92;109518;1252;59919;-67
2023/12/31 10:29:48;;;;;;;;;;;;;;;11.05;44.65;99200.55;109579;1253;59887;-66
2023/12/31 10:32:18;;;;;;;;;;;;;;;11.45;44.20;99194.69;109575;1253;75515;-66
2023/12/31 10:34:45;;;;;;;;;;;;;;;11.81;43.58;99193.73;109500;1253;68554;-67
2023/12/31 10:37:13;;;;;;;;;;;;;;;11.89;43.33;99189.27;109435;1253;71434;-67
2023/12/31 10:39:41;;;;;;;;;;;;;;;11.93;43.37;99182.91;109517;1252;59761;-68
2023/12/31 10:42:08;;;;;;;;;;;;;;;11.91;42.45;99186.52;109559;1252;60497;-67
2023/12/31 10:44:36;;;;;;;;;;;;;;;12.10;41.86;99192.41;109540;1252;75539;-68
2023/12/31 10:47:07;;;;;;;;;;;;;;;12.07;41.87;99188.18;109541;1252;68540;-66
2023/12/31 10:49:35;;;;;;;;;;;;;;;12.20;41.81;99187.02;109539;1253;71786;-66
2023/12/31 10:52:04;;;;;;;;;;;;;;;12.04;42.24;99182.90;109538;1252;59807;-67
2023/12/31 10:54:36;;;;;;;;;;;;;;;11.91;42.75;99183.67;109558;1252;59736;-66
2023/12/31 10:57:05;;;;;;;;;;;;;;;12.28;42.22;99188.70;109516;1252;75534;-66
2023/12/31 10:59:33;;;;;;;;;;;;;;;12.52;41.85;99190.04;109586;1252;67593;-65
2023/12/31 11:02:01;;;;;;;;;;;;;;;12.40;40.79;99183.91;109495;1253;72757;-67
2023/12/31 11:04:29;;;;;;;;;;;;;;;12.11;41.11;99181.22;109286;1253;59794;-67
2023/12/31 11:06:56;;;;;;;;;;;;;;;11.67;41.96;99179.43;109474;1253;59712;-67
2023/12/31 11:09:24;;;;;;;;;;;;;;;11.78;41.54;99178.14;109484;1252;75599;-68
2023/12/31 11:11:51;;;;;;;;;;;;;;;11.25;42.22;99178.39;109494;1253;68536;-68
2023/12/31 11:14:19;;;;;;;;;;;;;;;11.46;42.39;99185.77;109477;1253;71715;-68
2023/12/31 11:16:50;;;;;;;;;;;;;;;11.31;43.17;99186.58;109449;1253;59854;-67
2023/12/31 11:19:29;;;;;;;;;;;;;;;11.11;43.97;99185.52;109481;1252;59805;-69
2023/12/31 11:22:08;;;;;;;;;;;;;;;11.16;44.01;99183.91;109516;1253;75544;-66
2023/12/31 11:24:36;;;;;;;;;;;;;;;11.48;43.40;99187.86;109428;1252;67666;-66
2023/12/31 11:27:07;;;;;;;;;;;;;;;11.97;42.56;99191.64;109434;1253;71778;-66
2023/12/31 11:29:34;;;;;;;;;;;;;;;12.18;42.39;99194.45;109423;1253;59846;-65
2023/12/31 11:32:03;;;;;;;;;;;;;;;12.35;42.37;99198.11;109446;1253;59855;-66
2023/12/31 11:34:34;;;;;;;;;;;;;;;12.76;41.61;99199.90;109454;1253;76586;-67
2023/12/31 11:37:02;;;;;;;;;;;;;;;12.90;41.28;99198.58;109475;1252;68930;-66
2023/12/31 11:39:31;;;;;;;;;;;;;;;12.69;41.56;99197.48;109430;1254;72721;-66
2023/12/31 11:42:11;;;;;;;;;;;;;;;12.55;41.69;99199.45;109450;1254;59833;-67
2023/12/31 11:44:43;;;;;;;;;;;;;;;12.69;41.53;99198.63;109392;1253;59958;-67
2023/12/31 11:47:21;;;;;;;;;;;;;;;12.76;41.30;99196.72;109438;1253;74261;-66
2023/12/31 11:49:52;;;;;;;;;;;;;;;12.91;41.32;99200.52;109437;1252;68025;-67
2023/12/31 11:52:20;;;;;;;;;;;;;;;13.18;40.51;99200.05;109434;1253;71434;-66
2023/12/31 11:54:49;;;;;;;;;;;;;;;12.86;39.53;99195.70;109452;1253;59817;-66
2023/12/31 11:57:17;;;;;;;;;;;;;;;12.74;39.94;99196.67;109412;1255;59842;-67
2023/12/31 11:59:44;;;;;;;;;;;;;;;12.90;39.98;99199.83;109386;1253;74234;-66
2023/12/31 12:02:12;;;;;;;;;;;;;;;13.05;39.85;99200.17;109399;1252;68946;-67
2023/12/31 12:04:40;;;;;;;;;;;;;;;12.78;40.06;99195.67;109453;1253;72734;-67
2023/12/31 12:07:07;;;;;;;;;;;;;;;12.39;40.03;99198.54;109469;1253;59752;-66
2023/12/31 12:09:36;;;;;;;;;;;;;;;12.30;40.04;99197.59;109473;1253;59803;-67
2023/12/31 12:12:04;;;;;;;;;;;;;;;12.17;40.13;99193.90;109454;1253;75438;-68
2023/12/31 12:14:32;;;;;;;;;;;;;;;11.93;40.40;99198.45;109408;1253;68838;-68
2023/12/31 12:16:59;;;;;;;;;;;;;;;12.03;40.30;99200.55;109339;1253;71409;-69
2023/12/31 12:19:27;;;;;;;;;;;;;;;12.37;40.11;99205.59;109451;1253;59739;-68
2023/12/31 12:21:57;;;;;;;;;;;;;;;11.94;40.51;99203.14;109481;1253;60225;-68
2023/12/31 12:24:24;;;;;;;;;;;;;;;11.92;40.65;99205.29;109474;1253;75484;-66
2023/12/31 12:26:52;;;;;;;;;;;;;;;12.09;40.76;99208.56;109511;1252;68512;-66
2023/12/31 12:29:20;;;;;;;;;;;;;;;11.99;41.11;99205.09;109470;1253;71472;-65
2023/12/31 12:31:48;;;;;;;;;;;;;;;12.31;40.78;99204.86;109144;1253;59928;-66
2023/12/31 12:34:15;;;;;;;;;;;;;;;12.10;40.79;99207.00;109470;1253;59645;-65
2023/12/31 12:36:43;;;;;;;;;;;;;;;11.84;41.14;99205.62;109169;1252;74555;-66
2023/12/31 12:39:17;;;;;;;;;;;;;;;12.18;40.63;99214.69;109492;1253;68839;-62
2023/12/31 12:41:48;;;;;;;;;;;;;;;12.10;40.80;99212.54;109522;1253;72705;-68
2023/12/31 12:44:16;;;;;;;;;;;;;;;11.66;41.73;99207.88;109469;1254;59783;-66
2023/12/31 12:46:44;;;;;;;;;;;;;;;11.58;41.71;99210.08;109345;1253;59934;-65